createdAt,value
2022-11-22T00:01:32.152Z,9.00
2022-11-22T00:04:05.069Z,9.00
2022-11-22T00:06:35.352Z,9.00
2022-11-22T00:09:05.742Z,8.90
2022-11-22T00:11:36.001Z,8.90
2022-11-22T00:14:06.480Z,8.90
2022-11-22T00:16:36.934Z,8.80
2022-11-22T00:19:09.901Z,8.80
2022-11-22T00:21:40.117Z,8.80
2022-11-22T00:24:10.549Z,8.80
2022-11-22T00:26:40.749Z,8.80
2022-11-22T00:29:11.218Z,8.70
2022-11-22T00:31:41.405Z,8.70
2022-11-22T00:34:14.301Z,8.70
2022-11-22T00:36:44.537Z,8.70
2022-11-22T00:39:14.885Z,8.70
2022-11-22T00:41:45.146Z,8.70
2022-11-22T00:44:15.399Z,8.70
2022-11-22T00:46:45.611Z,8.70
2022-11-22T00:49:18.520Z,8.60
2022-11-22T00:51:48.950Z,8.70
2022-11-22T00:54:19.238Z,8.60
2022-11-22T00:56:49.518Z,8.50
2022-11-22T00:59:19.863Z,8.50
2022-11-22T01:01:50.063Z,8.70
2022-11-22T01:04:23.014Z,8.50
2022-11-22T01:06:53.583Z,8.40
2022-11-22T01:09:25.633Z,8.40
2022-11-22T01:11:55.842Z,8.50
2022-11-22T01:14:26.176Z,8.50
2022-11-22T01:16:56.506Z,8.40
2022-11-22T01:19:29.781Z,8.30
2022-11-22T01:22:00.270Z,8.30
2022-11-22T01:24:30.616Z,8.30
2022-11-22T01:27:00.877Z,8.30
2022-11-22T01:29:32.510Z,8.20
2022-11-22T01:32:02.921Z,8.20
2022-11-22T01:34:37.030Z,8.20
2022-11-22T01:37:07.583Z,8.20
2022-11-22T01:39:37.830Z,8.30
2022-11-22T01:42:08.096Z,8.20
2022-11-22T01:44:39.691Z,8.10
2022-11-22T01:47:15.154Z,8.10
2022-11-22T01:49:53.106Z,8.20
2022-11-22T01:52:27.479Z,8.20
2022-11-22T01:55:00.449Z,8.10
2022-11-22T01:57:33.705Z,8.10
2022-11-22T02:00:09.009Z,8.10
2022-11-22T02:02:49.729Z,8.00
2022-11-22T02:05:26.313Z,8.00
2022-11-22T02:08:02.033Z,8.00
2022-11-22T02:10:35.794Z,7.90
2022-11-22T02:13:07.671Z,7.90
2022-11-22T02:15:39.137Z,8.00
2022-11-22T02:18:09.461Z,7.90
2022-11-22T02:20:43.140Z,7.90
2022-11-22T02:23:20.367Z,8.00
2022-11-22T02:26:01.234Z,8.00
2022-11-22T02:28:34.821Z,7.90
2022-11-22T02:31:05.155Z,7.90
2022-11-22T02:33:35.395Z,7.90
2022-11-22T02:36:06.112Z,7.90
2022-11-22T02:38:38.411Z,7.90
2022-11-22T02:41:13.955Z,7.80
2022-11-22T02:43:47.425Z,7.80
2022-11-22T02:46:21.462Z,7.80
2022-11-22T02:48:52.393Z,7.80
2022-11-22T02:51:22.886Z,7.80
2022-11-22T02:53:54.572Z,7.80
2022-11-22T02:56:27.463Z,7.80
2022-11-22T02:58:57.723Z,7.80
2022-11-22T03:01:28.137Z,7.70
2022-11-22T03:03:58.438Z,7.70
2022-11-22T03:06:28.830Z,7.80
2022-11-22T03:08:59.624Z,7.80
2022-11-22T03:11:32.548Z,7.80
2022-11-22T03:14:02.779Z,7.80
2022-11-22T03:16:33.285Z,7.80
2022-11-22T03:19:03.545Z,7.80
2022-11-22T03:21:33.801Z,7.80
2022-11-22T03:24:04.095Z,7.70
2022-11-22T03:26:37.759Z,7.70
2022-11-22T03:29:08.072Z,7.70
2022-11-22T03:31:38.871Z,7.70
2022-11-22T03:34:09.115Z,7.70
2022-11-22T03:36:39.381Z,7.60
2022-11-22T03:39:09.789Z,7.60
2022-11-22T03:41:42.584Z,7.60
2022-11-22T03:44:12.934Z,7.60
2022-11-22T03:46:43.249Z,7.50
2022-11-22T03:49:14.810Z,7.60
2022-11-22T03:51:45.124Z,7.60
2022-11-22T03:54:16.882Z,7.60
2022-11-22T03:56:49.742Z,7.60
2022-11-22T03:59:20.026Z,7.60
2022-11-22T04:01:50.299Z,7.60
2022-11-22T04:04:20.656Z,7.60
2022-11-22T04:06:50.889Z,7.60
2022-11-22T04:09:21.291Z,7.60
2022-11-22T04:11:54.248Z,7.60
2022-11-22T04:14:36.862Z,7.60
2022-11-22T04:17:07.128Z,7.60
2022-11-22T04:19:37.459Z,7.50
2022-11-22T04:22:05.134Z,7.70
2022-11-22T04:24:47.691Z,7.50
2022-11-22T04:27:20.530Z,7.50
2022-11-22T04:29:50.848Z,7.50
2022-11-22T04:32:33.396Z,7.50
2022-11-22T04:35:03.693Z,7.50
2022-11-22T04:37:33.943Z,7.50
2022-11-22T04:40:04.512Z,7.40
2022-11-22T04:42:49.684Z,7.50
2022-11-22T04:45:20.046Z,7.40
2022-11-22T04:48:02.316Z,7.40
2022-11-22T04:50:47.115Z,7.50
2022-11-22T04:53:18.077Z,7.40
2022-11-22T04:55:50.127Z,7.30
2022-11-22T04:58:23.092Z,7.40
2022-11-22T05:00:53.651Z,7.30
2022-11-22T05:03:24.016Z,7.40
2022-11-22T05:05:54.390Z,7.50
2022-11-22T05:08:24.567Z,7.30
2022-11-22T05:11:00.670Z,7.30
2022-11-22T05:13:36.500Z,7.30
2022-11-22T05:16:08.630Z,7.30
2022-11-22T05:18:39.649Z,7.30
2022-11-22T05:21:11.036Z,7.30
2022-11-22T05:23:53.956Z,7.40
2022-11-22T05:26:27.320Z,7.30
2022-11-22T05:29:01.034Z,7.30
2022-11-22T05:31:31.334Z,7.40
2022-11-22T05:34:01.503Z,7.40
2022-11-22T05:36:35.698Z,7.50
2022-11-22T05:39:07.086Z,7.30
2022-11-22T05:41:37.366Z,7.30
2022-11-22T05:44:10.293Z,7.30
2022-11-22T05:46:40.659Z,7.30
2022-11-22T05:49:10.857Z,7.30
2022-11-22T05:51:41.235Z,7.30
2022-11-22T05:54:11.542Z,7.30
2022-11-22T05:56:41.964Z,7.30
2022-11-22T05:59:14.921Z,7.30
2022-11-22T06:01:45.523Z,7.30
2022-11-22T06:04:15.801Z,7.30
2022-11-22T06:06:46.198Z,7.30
2022-11-22T06:09:16.549Z,7.30
2022-11-22T06:11:46.853Z,7.30
2022-11-22T06:14:19.737Z,7.30
2022-11-22T06:16:49.964Z,7.30
2022-11-22T06:19:20.171Z,7.40
2022-11-22T06:21:50.528Z,7.50
2022-11-22T06:24:20.886Z,7.40
2022-11-22T06:26:53.876Z,7.30
2022-11-22T06:29:26.830Z,7.50
2022-11-22T06:32:02.006Z,7.50
2022-11-22T06:34:33.939Z,7.50
2022-11-22T06:37:04.307Z,7.50
2022-11-22T06:39:34.549Z,7.50
2022-11-22T06:42:04.978Z,7.50
2022-11-22T06:44:37.826Z,7.60
2022-11-22T06:47:08.500Z,7.50
2022-11-22T06:49:38.866Z,7.60
2022-11-22T06:52:09.294Z,7.60
2022-11-22T06:54:39.525Z,7.60
2022-11-22T06:57:09.849Z,7.60
2022-11-22T06:59:42.701Z,7.60
2022-11-22T07:02:15.111Z,7.60
2022-11-22T07:05:09.369Z,7.60
2022-11-22T07:07:35.665Z,7.60
2022-11-22T07:10:05.904Z,7.70
2022-11-22T07:12:36.148Z,7.60
2022-11-22T07:15:09.949Z,7.60
2022-11-22T07:17:40.217Z,7.60
2022-11-22T07:20:11.667Z,7.60
2022-11-22T07:22:44.780Z,7.60
2022-11-22T07:25:15.025Z,7.60
2022-11-22T07:27:45.293Z,7.60
2022-11-22T07:30:19.271Z,7.60
2022-11-22T07:32:50.497Z,7.60
2022-11-22T07:35:20.788Z,7.60
2022-11-22T07:37:51.111Z,7.60
2022-11-22T07:40:21.523Z,7.60
2022-11-22T07:42:57.028Z,7.60
2022-11-22T07:45:31.282Z,7.60
2022-11-22T07:48:02.775Z,7.60
2022-11-22T07:50:33.050Z,7.70
2022-11-22T07:53:03.747Z,7.60
2022-11-22T07:55:33.950Z,7.60
2022-11-22T07:58:04.501Z,7.70
2022-11-22T08:00:37.343Z,7.70
2022-11-22T08:03:07.711Z,7.70
2022-11-22T08:05:37.955Z,7.70
2022-11-22T08:08:08.723Z,7.70
2022-11-22T08:10:38.945Z,7.70
2022-11-22T08:13:09.466Z,7.70
2022-11-22T08:15:42.360Z,7.70
2022-11-22T08:18:12.665Z,7.70
2022-11-22T08:20:42.869Z,7.70
2022-11-22T08:23:13.191Z,7.70
2022-11-22T08:25:43.505Z,7.80
2022-11-22T08:28:14.565Z,7.70
2022-11-22T08:30:47.437Z,7.80
2022-11-22T08:33:17.783Z,7.70
2022-11-22T08:35:52.306Z,7.70
2022-11-22T08:38:22.758Z,7.70
2022-11-22T08:40:53.764Z,7.70
2022-11-22T08:43:24.267Z,7.80
2022-11-22T08:46:02.205Z,7.70
2022-11-22T08:48:33.905Z,7.80
2022-11-22T08:51:05.686Z,7.80
2022-11-22T08:53:37.325Z,7.80
2022-11-22T08:56:09.902Z,7.80
2022-11-22T08:58:40.888Z,7.70
2022-11-22T09:01:16.899Z,7.80
2022-11-22T09:03:48.248Z,7.80
2022-11-22T09:12:01.530Z,7.80
2022-11-22T09:14:32.011Z,7.90
2022-11-22T09:17:05.965Z,7.80
2022-11-22T09:19:36.467Z,7.90
2022-11-22T09:22:06.785Z,7.90
2022-11-22T09:24:37.141Z,7.90
2022-11-22T09:27:07.441Z,7.90
2022-11-22T09:29:39.279Z,7.90
2022-11-22T09:32:15.115Z,7.90
2022-11-22T09:34:45.807Z,7.90
2022-11-22T09:37:18.641Z,7.90
2022-11-22T09:39:49.479Z,7.90
2022-11-22T09:42:44.736Z,7.90
2022-11-22T09:45:38.149Z,7.90
2022-11-22T09:48:24.680Z,7.90
2022-11-22T09:51:05.535Z,7.90
2022-11-22T09:53:39.982Z,8.10
2022-11-22T09:56:15.226Z,8.00
2022-11-22T09:58:51.726Z,8.00
2022-11-22T10:01:27.717Z,8.00
2022-11-22T10:04:08.391Z,8.00
2022-11-22T10:06:43.174Z,8.00
2022-11-22T10:09:30.884Z,8.00
2022-11-22T10:12:05.309Z,8.00
2022-11-22T10:14:44.810Z,8.00
2022-11-22T10:17:37.546Z,8.10
2022-11-22T10:20:17.951Z,8.20
2022-11-22T10:22:49.086Z,8.20
2022-11-22T10:25:22.605Z,8.20
2022-11-22T10:28:00.836Z,8.20
2022-11-22T10:30:33.052Z,8.20
2022-11-22T10:33:13.182Z,8.30
2022-11-22T10:35:59.548Z,8.30
2022-11-22T10:38:58.579Z,8.30
2022-11-22T10:41:39.861Z,8.40
2022-11-22T10:44:26.469Z,8.40
2022-11-22T10:47:08.228Z,8.40
2022-11-22T10:49:50.958Z,8.40
2022-11-22T10:52:34.815Z,8.50
2022-11-22T10:55:19.149Z,8.50
2022-11-22T10:57:57.678Z,8.60
2022-11-22T11:00:28.754Z,8.60
2022-11-22T11:03:20.031Z,8.60
2022-11-22T11:09:48.040Z,8.70
2022-11-22T11:11:44.300Z,8.80
2022-11-22T11:14:28.436Z,8.80
2022-11-22T11:16:59.344Z,8.80
2022-11-22T11:19:33.044Z,8.90
2022-11-22T11:22:14.844Z,8.90
2022-11-22T11:24:47.783Z,8.80
2022-11-22T11:27:20.360Z,8.80
2022-11-22T11:29:52.515Z,8.90
2022-11-22T11:32:23.880Z,8.80
2022-11-22T11:34:58.083Z,8.80
2022-11-22T11:37:34.539Z,8.90
2022-11-22T11:40:07.948Z,8.90
2022-11-22T11:42:39.004Z,8.80
2022-11-22T11:45:30.850Z,8.80
2022-11-22T11:48:01.068Z,8.80
2022-11-22T11:50:32.080Z,8.80
2022-11-22T11:53:08.052Z,8.80
2022-11-22T11:55:41.007Z,8.80
2022-11-22T11:58:22.491Z,8.90
2022-11-22T12:00:53.143Z,8.80
2022-11-22T12:03:25.511Z,8.90
2022-11-22T12:06:15.034Z,8.90
2022-11-22T12:08:45.319Z,8.90
2022-11-22T12:11:26.509Z,8.80
2022-11-22T12:14:19.663Z,8.90
2022-11-22T12:16:56.059Z,8.80
2022-11-22T12:19:33.566Z,8.90
2022-11-22T12:22:08.451Z,8.90
2022-11-22T12:25:09.179Z,8.90
2022-11-22T12:27:38.089Z,9.00
2022-11-22T12:30:14.213Z,9.00
2022-11-22T12:32:48.837Z,9.00
2022-11-22T12:35:22.966Z,9.00
2022-11-22T12:37:56.222Z,9.00
2022-11-22T12:40:29.192Z,9.00
2022-11-22T12:43:07.341Z,9.00
2022-11-22T12:45:42.436Z,8.90
2022-11-22T12:48:23.480Z,9.00
2022-11-22T12:50:57.980Z,9.10
2022-11-22T12:53:33.654Z,9.10
2022-11-22T12:56:14.262Z,9.10
2022-11-22T12:58:54.951Z,9.10
2022-11-22T13:01:29.035Z,9.10
2022-11-22T13:04:03.921Z,9.10
2022-11-22T13:06:43.500Z,9.20
2022-11-22T13:09:17.940Z,9.10
2022-11-22T13:11:53.723Z,9.10
2022-11-22T13:14:34.221Z,9.10
2022-11-22T13:17:09.632Z,9.10
2022-11-22T13:19:46.922Z,9.10
2022-11-22T13:22:24.729Z,9.10
2022-11-22T13:25:28.977Z,9.10
2022-11-22T13:28:01.772Z,9.10
2022-11-22T13:30:39.311Z,9.20
2022-11-22T13:33:26.290Z,9.10
2022-11-22T13:36:26.430Z,9.10
2022-11-22T13:38:58.838Z,9.20
2022-11-22T13:41:32.956Z,9.20
2022-11-22T13:44:21.432Z,9.10
2022-11-22T13:47:02.122Z,9.10
2022-11-22T13:49:45.098Z,9.10
2022-11-22T13:52:54.054Z,9.30
2022-11-22T13:55:42.251Z,9.30
2022-11-22T13:58:55.983Z,9.30
2022-11-22T14:02:03.568Z,9.30
2022-11-22T14:04:42.567Z,9.30
2022-11-22T14:07:36.360Z,9.40
2022-11-22T14:10:27.003Z,9.30
2022-11-22T14:13:16.106Z,9.30
2022-11-22T14:16:10.682Z,9.30
2022-11-22T14:18:54.754Z,9.40
2022-11-22T14:21:46.911Z,9.40
2022-11-22T14:24:27.402Z,9.40
2022-11-22T14:27:08.775Z,9.50
2022-11-22T14:30:10.833Z,9.50
2022-11-22T14:33:02.015Z,9.50
2022-11-22T14:35:42.311Z,9.50
2022-11-22T14:38:38.887Z,9.50
2022-11-22T14:41:33.935Z,9.50
2022-11-22T14:44:05.349Z,9.50
2022-11-22T14:46:57.282Z,9.50
2022-11-22T14:49:38.965Z,9.50
2022-11-22T14:52:22.763Z,9.50
2022-11-22T14:54:58.321Z,9.50
2022-11-22T14:57:32.085Z,9.50
2022-11-22T15:00:10.545Z,9.50
2022-11-22T15:02:55.466Z,9.50
2022-11-22T15:09:11.395Z,9.60
2022-11-22T15:09:11.671Z,9.60
2022-11-22T15:11:53.677Z,9.60
2022-11-22T15:58:16.400Z,9.40
2022-11-22T16:00:47.552Z,9.40
2022-11-22T16:03:25.562Z,9.50
2022-11-22T16:06:06.118Z,9.50
2022-11-22T16:08:41.978Z,9.40
2022-11-22T16:11:25.204Z,9.50
2022-11-22T16:13:58.070Z,9.50
2022-11-22T16:16:31.570Z,9.40
2022-11-22T16:19:22.476Z,9.40
2022-11-22T16:21:59.215Z,9.40
2022-11-22T16:24:31.036Z,9.40
2022-11-22T16:27:03.887Z,9.40
2022-11-22T16:29:38.343Z,9.60
2022-11-22T16:32:14.161Z,9.60
2022-11-22T16:34:45.163Z,9.50
2022-11-22T16:37:34.664Z,9.50
2022-11-22T16:40:09.825Z,9.50
2022-11-22T16:42:41.360Z,9.50
2022-11-22T16:45:20.405Z,9.50
2022-11-22T16:48:03.872Z,9.60
2022-11-22T16:50:42.703Z,9.60
2022-11-22T16:53:16.933Z,9.60
2022-11-22T16:55:47.419Z,9.60
2022-11-22T16:58:19.793Z,9.70
2022-11-22T17:00:54.094Z,9.70
2022-11-22T17:03:29.839Z,9.70
2022-11-22T17:06:00.079Z,9.60
2022-11-22T17:08:30.335Z,9.60
2022-11-22T17:11:00.513Z,9.70
2022-11-22T17:13:30.784Z,9.70
2022-11-22T17:16:03.567Z,9.70
2022-11-22T17:18:33.839Z,9.70
2022-11-22T17:21:04.046Z,9.70
2022-11-22T17:23:36.887Z,9.80
2022-11-22T17:26:07.327Z,9.80
2022-11-22T17:28:37.601Z,9.80
2022-11-22T17:31:15.297Z,9.90
2022-11-22T17:33:45.553Z,9.80
2022-11-22T17:36:24.389Z,9.80
2022-11-22T17:38:54.621Z,9.90
2022-11-22T17:41:24.826Z,9.90
2022-11-22T17:43:56.130Z,10.00
2022-11-22T17:46:29.431Z,9.90
2022-11-22T17:49:01.574Z,9.90
2022-11-22T17:51:32.905Z,9.90
2022-11-22T17:54:03.344Z,10.00
2022-11-22T17:56:36.223Z,9.90
2022-11-22T17:59:06.848Z,9.90
2022-11-22T18:01:39.734Z,10.00
2022-11-22T18:04:09.977Z,9.90
2022-11-22T18:06:40.147Z,10.00
2022-11-22T18:09:10.459Z,9.90
2022-11-22T18:11:40.587Z,9.90
2022-11-22T18:14:10.863Z,9.90
2022-11-22T18:16:43.605Z,9.90
2022-11-22T18:19:13.999Z,9.90
2022-11-22T18:21:44.316Z,9.90
2022-11-22T18:24:15.675Z,9.90
2022-11-22T18:26:45.930Z,9.90
2022-11-22T18:29:41.014Z,9.90
2022-11-22T18:32:11.162Z,9.90
2022-11-22T18:34:41.893Z,9.90
2022-11-22T18:37:12.477Z,9.90
2022-11-22T18:39:42.697Z,9.90
2022-11-22T18:42:15.894Z,9.90
2022-11-22T18:44:46.274Z,9.90
2022-11-22T18:47:19.313Z,9.90
2022-11-22T18:49:49.603Z,9.90
2022-11-22T18:52:19.902Z,9.90
2022-11-22T18:54:50.317Z,10.00
2022-11-22T18:57:20.520Z,10.00
2022-11-22T18:59:50.806Z,10.00
2022-11-22T19:02:25.915Z,9.90
2022-11-22T19:04:56.692Z,9.90
2022-11-22T19:07:27.108Z,9.90
2022-11-22T19:09:57.341Z,9.90
2022-11-22T19:12:27.916Z,9.90
2022-11-22T19:14:58.250Z,9.80
2022-11-22T19:17:31.094Z,9.90
2022-11-22T19:20:01.312Z,9.90
2022-11-22T19:22:31.549Z,9.90
2022-11-22T19:25:01.890Z,9.90
2022-11-22T19:27:32.109Z,9.90
2022-11-22T19:30:02.477Z,9.90
2022-11-22T19:32:35.335Z,9.90
2022-11-22T19:35:05.688Z,9.90
2022-11-22T19:37:36.979Z,9.80
2022-11-22T19:40:08.459Z,9.90
2022-11-22T19:42:40.094Z,9.80
2022-11-22T19:45:11.444Z,9.80
2022-11-22T19:47:45.010Z,9.80
2022-11-22T19:50:15.243Z,9.90
2022-11-22T19:52:45.400Z,9.80
2022-11-22T19:55:15.875Z,9.90
2022-11-22T19:57:46.030Z,9.80
2022-11-22T20:00:17.769Z,9.90
2022-11-22T20:02:50.582Z,9.80
2022-11-22T20:05:20.979Z,9.80
2022-11-22T20:07:51.193Z,9.90
2022-11-22T20:10:21.572Z,9.80
2022-11-22T20:12:51.977Z,9.80
2022-11-22T20:15:22.300Z,9.80
2022-11-22T20:17:55.157Z,9.80
2022-11-22T20:20:25.873Z,9.80
2022-11-22T20:22:56.899Z,9.80
2022-11-22T20:25:27.403Z,9.80
2022-11-22T20:27:57.632Z,9.90
2022-11-22T20:30:28.012Z,9.80
2022-11-22T20:33:00.872Z,9.80
2022-11-22T20:35:31.211Z,9.90
2022-11-22T20:38:02.776Z,9.80
2022-11-22T20:40:33.112Z,9.90
2022-11-22T20:43:03.342Z,9.90
2022-11-22T20:45:33.671Z,9.80
2022-11-22T20:48:06.701Z,9.80
2022-11-22T20:50:37.050Z,9.80
2022-11-22T20:53:07.357Z,9.90
2022-11-22T20:55:37.792Z,9.90
2022-11-22T20:58:08.025Z,9.80
2022-11-22T21:00:38.476Z,9.90
2022-11-22T21:03:11.710Z,9.80
2022-11-22T21:05:42.045Z,9.90
2022-11-22T21:08:12.316Z,9.90
2022-11-22T21:10:42.806Z,10.00
2022-11-22T21:13:13.279Z,9.90
2022-11-22T21:15:43.842Z,9.80
2022-11-22T21:18:26.602Z,9.90
2022-11-22T21:20:56.940Z,9.90
2022-11-22T21:23:27.165Z,10.00
2022-11-22T21:25:57.518Z,9.90
2022-11-22T21:28:28.168Z,9.90
2022-11-22T21:30:59.176Z,9.90
2022-11-22T21:33:32.987Z,9.90
2022-11-22T21:36:03.860Z,9.90
2022-11-22T21:38:35.617Z,9.90
2022-11-22T21:41:38.085Z,9.90
2022-11-22T21:43:58.675Z,10.00
2022-11-22T21:46:29.076Z,9.90
2022-11-22T21:49:01.970Z,9.90
2022-11-22T21:51:32.397Z,10.00
2022-11-22T21:54:03.569Z,10.00
2022-11-22T21:56:34.454Z,9.90
2022-11-22T21:59:04.913Z,10.00
2022-11-22T22:01:35.613Z,10.00
2022-11-22T22:04:09.083Z,9.90
2022-11-22T22:06:43.501Z,9.90
2022-11-22T22:09:16.278Z,9.90
2022-11-22T22:11:48.026Z,9.90
2022-11-22T22:14:18.501Z,9.90
2022-11-22T22:16:48.805Z,9.90
2022-11-22T22:19:21.787Z,10.00
2022-11-22T22:21:52.328Z,9.90
2022-11-22T22:24:22.758Z,9.90
2022-11-22T22:26:53.071Z,9.90
2022-11-22T22:29:23.294Z,10.00
2022-11-22T22:31:53.636Z,10.00
2022-11-22T22:34:26.419Z,10.00
2022-11-22T22:36:56.646Z,9.90
2022-11-22T22:39:26.896Z,9.90
2022-11-22T22:41:57.389Z,9.90
2022-11-22T22:44:27.618Z,9.90
2022-11-22T22:46:57.896Z,9.90
2022-11-22T22:49:31.611Z,9.90
2022-11-22T22:52:01.947Z,9.90
2022-11-22T22:54:32.162Z,9.90
2022-11-22T22:57:02.596Z,9.90
2022-11-22T22:59:33.479Z,10.00
2022-11-22T23:02:04.574Z,10.00
2022-11-22T23:04:37.550Z,9.90
2022-11-22T23:07:07.905Z,9.90
2022-11-22T23:09:38.185Z,9.90
2022-11-22T23:12:14.985Z,9.90
2022-11-22T23:14:45.198Z,9.90
2022-11-22T23:17:15.518Z,9.90
2022-11-22T23:19:48.328Z,10.00
2022-11-22T23:22:23.317Z,9.90
2022-11-22T23:24:55.982Z,10.00
2022-11-22T23:27:27.589Z,10.00
2022-11-22T23:29:57.782Z,9.90
2022-11-22T23:32:28.068Z,9.90
2022-11-22T23:35:00.848Z,9.80
2022-11-22T23:37:31.138Z,9.90
2022-11-22T23:40:01.396Z,9.90
2022-11-22T23:42:32.211Z,9.80
2022-11-22T23:45:02.363Z,10.00
2022-11-22T23:47:32.760Z,10.00
2022-11-22T23:50:05.764Z,10.00
2022-11-22T23:52:36.059Z,10.00
2022-11-22T23:55:06.489Z,10.00
2022-11-22T23:57:36.818Z,10.00
